Time;durP1;ratioP1;P1;durP2;ratioP2;P2;SDS_P1;SDS_P2;PMS_P1;PMS_P2;Temp;Humidity;BMP_temperature;BMP_pressure;BME280_temperature;BME280_humidity;BME280_pressure;Samples;Min_cycle;Max_cycle;Signal;HPM_P1;HPM_P2
2023/06/30 00:00:28;;;;;;;1.10;0.60;;;;;;;14.90;100.00;98554.48;103757;1266;62179;-47
2023/06/30 00:02:55;;;;;;;5.30;0.70;;;;;;;14.88;100.00;98554.36;103748;1271;70896;-46
2023/06/30 00:05:25;;;;;;;1.30;0.70;;;;;;;14.84;100.00;98551.58;103854;1266;67991;-47
2023/06/30 00:07:54;;;;;;;3.70;0.70;;;;;;;14.82;100.00;98546.67;103670;1272;72134;-46
2023/06/30 00:10:22;;;;;;;3.30;0.60;;;;;;;14.81;100.00;98545.69;105904;1266;255420;-47
2023/06/30 00:12:50;;;;;;;2.60;0.70;;;;;;;14.80;100.00;98545.42;103846;1266;60884;-48
2023/06/30 00:15:17;;;;;;;2.00;0.70;;;;;;;14.79;100.00;98543.05;103782;1271;71873;-49
2023/06/30 00:17:45;;;;;;;1.60;0.70;;;;;;;14.78;100.00;98536.78;103724;1265;68291;-47
2023/06/30 00:20:12;;;;;;;2.90;0.80;;;;;;;14.77;100.00;98535.41;104038;1267;71824;-48
2023/06/30 00:22:40;;;;;;;2.00;0.90;;;;;;;14.78;100.00;98537.72;104035;1264;61923;-48
2023/06/30 00:25:08;;;;;;;1.10;0.70;;;;;;;14.78;100.00;98539.13;104169;1264;60018;-48
2023/06/30 00:27:35;;;;;;;0.80;0.70;;;;;;;14.78;100.00;98532.27;104011;1270;73037;-47
2023/06/30 00:30:05;;;;;;;1.90;0.80;;;;;;;14.77;100.00;98529.62;104383;1266;67865;-48
2023/06/30 00:32:32;;;;;;;4.40;0.60;;;;;;;14.77;100.00;98532.52;103833;1266;70481;-48
2023/06/30 00:35:00;;;;;;;0.80;0.70;;;;;;;14.76;100.00;98533.65;104204;1270;60398;-48
2023/06/30 00:37:27;;;;;;;3.30;0.60;;;;;;;14.75;100.00;98531.73;104182;1264;59900;-46
2023/06/30 00:39:54;;;;;;;5.10;0.90;;;;;;;14.74;100.00;98532.75;103850;1269;73053;-48
2023/06/30 00:42:23;;;;;;;1.00;0.60;;;;;;;14.72;100.00;98528.37;103740;1266;66643;-48
2023/06/30 00:44:50;;;;;;;2.10;0.80;;;;;;;14.72;100.00;98533.81;103954;1266;72455;-48
2023/06/30 00:47:18;;;;;;;1.10;0.70;;;;;;;14.69;100.00;98528.86;104833;1266;60713;-46
2023/06/30 00:49:46;;;;;;;1.20;0.80;;;;;;;14.67;100.00;98527.05;106157;1266;61842;-47
2023/06/30 00:52:13;;;;;;;3.20;0.60;;;;;;;14.66;100.00;98532.85;103712;1265;73098;-47
2023/06/30 00:54:40;;;;;;;2.20;0.70;;;;;;;14.67;100.00;98536.25;104001;1266;67044;-47
2023/06/30 00:57:08;;;;;;;1.50;0.70;;;;;;;14.67;100.00;98537.86;103588;1264;73302;-49
2023/06/30 00:59:35;;;;;;;1.40;0.70;;;;;;;14.66;100.00;98537.98;103772;1266;61737;-47
2023/06/30 01:02:04;;;;;;;1.60;0.70;;;;;;;14.64;100.00;98543.15;103846;1264;60098;-48
2023/06/30 01:04:43;;;;;;;2.10;0.70;;;;;;;14.62;100.00;98547.16;105288;1266;71756;-47
2023/06/30 01:07:15;;;;;;;1.20;0.70;;;;;;;14.61;100.00;98549.60;103986;1269;68362;-47
2023/06/30 01:09:58;;;;;;;0.70;0.70;;;;;;;14.59;100.00;98548.12;103711;1269;73169;-48
2023/06/30 01:12:25;;;;;;;3.50;0.70;;;;;;;14.58;100.00;98553.44;103771;1266;60174;-48
2023/06/30 01:14:53;;;;;;;0.70;0.70;;;;;;;14.56;100.00;98551.60;103954;1268;59669;-48
2023/06/30 01:17:20;;;;;;;2.60;0.70;;;;;;;14.54;100.00;98539.36;103886;1270;72959;-47
2023/06/30 01:19:47;;;;;;;3.20;0.90;;;;;;;14.52;100.00;98542.77;108085;1271;68389;-49
2023/06/30 01:22:20;;;;;;;1.00;0.60;;;;;;;14.51;100.00;98543.75;108029;1264;73269;-48
2023/06/30 01:24:47;;;;;;;2.50;0.70;;;;;;;14.52;100.00;98545.48;108113;1264;62712;-48
2023/06/30 01:27:15;;;;;;;4.20;0.70;;;;;;;14.53;100.00;98547.02;108141;1264;60647;-48
2023/06/30 01:29:42;;;;;;;1.70;0.70;;;;;;;14.55;100.00;98553.02;108149;1264;73047;-48
2023/06/30 01:32:17;;;;;;;3.50;0.60;;;;;;;14.55;100.00;98556.42;108446;1263;67242;-49
2023/06/30 01:34:47;;;;;;;1.90;0.60;;;;;;;14.55;100.00;98559.24;108292;1263;73877;-49
2023/06/30 01:37:15;;;;;;;1.30;0.60;;;;;;;14.55;100.00;98556.52;108424;1263;65110;-48
2023/06/30 01:39:45;;;;;;;2.40;0.60;;;;;;;14.57;100.00;98551.50;108333;1266;61450;-49
2023/06/30 01:42:15;;;;;;;0.80;0.70;;;;;;;14.57;100.00;98557.83;108369;1261;75353;-48
2023/06/30 01:44:42;;;;;;;0.90;0.70;;;;;;;14.57;100.00;98553.15;108360;1265;66506;-49
2023/06/30 01:47:10;;;;;;;1.10;0.70;;;;;;;14.57;100.00;98553.11;107136;1266;72774;-48
2023/06/30 01:49:37;;;;;;;1.20;0.70;;;;;;;14.59;100.00;98558.44;104380;1263;60419;-48
2023/06/30 01:52:06;;;;;;;0.90;0.60;;;;;;;14.58;100.00;98558.09;104186;1260;62571;-48
2023/06/30 01:54:34;;;;;;;1.40;0.70;;;;;;;14.59;100.00;98560.95;104309;1263;73052;-47
2023/06/30 01:57:01;;;;;;;2.00;0.60;;;;;;;14.60;100.00;98565.58;104082;1265;68045;-49
2023/06/30 01:59:31;;;;;;;1.20;0.80;;;;;;;14.62;100.00;98561.27;104252;1263;70455;-48
2023/06/30 02:01:58;;;;;;;0.90;0.70;;;;;;;14.64;100.00;98560.54;104290;1265;61675;-48
2023/06/30 02:04:28;;;;;;;1.20;0.70;;;;;;;14.66;100.00;98555.30;105539;1263;62054;-48
2023/06/30 02:06:56;;;;;;;4.40;0.80;;;;;;;14.68;100.00;98553.86;104136;1267;73158;-48
2023/06/30 02:09:23;;;;;;;3.40;0.70;;;;;;;14.70;100.00;98560.55;104291;1268;67984;-48
2023/06/30 02:12:06;;;;;;;0.90;0.80;;;;;;;14.72;100.00;98560.20;104972;1268;73029;-48
2023/06/30 02:14:34;;;;;;;1.10;0.70;;;;;;;14.73;100.00;98560.30;104459;1264;61651;-50
2023/06/30 02:17:01;;;;;;;0.80;0.60;;;;;;;14.74;100.00;98559.79;104297;1266;61241;-47
2023/06/30 02:19:29;;;;;;;1.20;1.10;;;;;;;14.76;100.00;98558.77;104538;1262;73491;-48
2023/06/30 02:21:56;;;;;;;1.00;0.80;;;;;;;14.78;100.00;98560.25;104019;1263;68742;-46
2023/06/30 02:24:24;;;;;;;1.10;0.70;;;;;;;14.78;100.00;98559.52;105680;1263;71859;-47
2023/06/30 02:26:52;;;;;;;0.80;0.70;;;;;;;14.80;100.00;98558.70;104256;1263;61686;-46
2023/06/30 02:29:20;;;;;;;2.10;0.70;;;;;;;14.81;100.00;98563.27;104122;1263;61011;-47
2023/06/30 02:31:48;;;;;;;3.20;0.80;;;;;;;14.81;100.00;98563.77;104315;1261;75368;-48
2023/06/30 02:34:16;;;;;;;2.30;0.70;;;;;;;14.82;100.00;98562.78;104583;1262;69163;-45
2023/06/30 02:36:43;;;;;;;1.00;0.80;;;;;;;14.82;100.00;98558.13;104012;1268;73144;-47
2023/06/30 02:39:11;;;;;;;0.80;0.70;;;;;;;14.81;100.00;98560.12;103925;1263;61787;-48
2023/06/30 02:41:38;;;;;;;1.40;0.80;;;;;;;14.83;100.00;98560.69;104141;1261;59982;-50
2023/06/30 02:44:05;;;;;;;2.30;0.70;;;;;;;14.85;100.00;98563.40;104244;1266;73517;-49
2023/06/30 02:46:33;;;;;;;2.60;0.80;;;;;;;14.87;100.00;98561.11;104263;1263;66356;-48
2023/06/30 02:49:01;;;;;;;1.00;0.80;;;;;;;14.89;100.00;98565.13;104745;1263;71540;-47
2023/06/30 02:51:28;;;;;;;2.70;0.80;;;;;;;14.90;100.00;98562.25;104135;1263;60405;-49
2023/06/30 02:53:56;;;;;;;1.40;0.80;;;;;;;14.91;100.00;98562.21;104380;1264;59965;-47
2023/06/30 02:56:23;;;;;;;1.30;1.20;;;;;;;14.93;100.00;98567.60;104626;1262;71829;-47
2023/06/30 02:58:50;;;;;;;6.10;0.80;;;;;;;14.95;100.00;98565.83;104752;1258;67635;-48
2023/06/30 03:01:21;;;;;;;0.80;0.70;;;;;;;14.98;100.00;98567.73;106935;1261;71014;-49
2023/06/30 03:03:50;;;;;;;0.90;0.80;;;;;;;14.99;100.00;98566.72;105721;1256;64047;-49
2023/06/30 03:06:20;;;;;;;1.30;0.70;;;;;;;15.01;100.00;98567.66;105191;1258;59860;-47
2023/06/30 03:08:49;;;;;;;0.80;0.80;;;;;;;15.02;100.00;98568.98;105239;1261;72265;-47
2023/06/30 03:11:17;;;;;;;2.00;0.70;;;;;;;15.05;100.00;98564.78;104580;1259;67679;-49
2023/06/30 03:13:46;;;;;;;3.30;0.80;;;;;;;15.08;100.00;98564.52;104486;1262;71422;-49
2023/06/30 03:16:14;;;;;;;2.40;1.30;;;;;;;15.10;100.00;98565.59;105832;1260;59761;-47
2023/06/30 03:18:41;;;;;;;2.50;0.80;;;;;;;15.12;100.00;98561.11;104242;1258;60043;-48
2023/06/30 03:21:08;;;;;;;1.70;0.90;;;;;;;15.15;100.00;98559.38;104565;1259;73001;-50
2023/06/30 03:23:36;;;;;;;2.20;1.10;;;;;;;15.19;100.00;98566.34;104616;1262;68653;-47
2023/06/30 03:26:03;;;;;;;1.40;0.80;;;;;;;15.22;100.00;98562.09;104316;1260;74170;-48
2023/06/30 03:28:31;;;;;;;2.00;0.80;;;;;;;15.25;100.00;98566.34;104365;1257;64015;-49
2023/06/30 03:30:58;;;;;;;2.80;0.80;;;;;;;15.27;100.00;98570.30;104351;1257;59988;-49
2023/06/30 03:33:25;;;;;;;1.00;0.90;;;;;;;15.29;100.00;98565.97;104674;1258;71815;-49
2023/06/30 03:35:53;;;;;;;1.10;0.90;;;;;;;15.31;100.00;98559.97;104648;1256;68394;-49
2023/06/30 03:38:20;;;;;;;1.60;0.80;;;;;;;15.35;100.00;98555.89;104566;1260;72686;-49
2023/06/30 03:40:50;;;;;;;1.30;0.80;;;;;;;15.39;100.00;98557.16;104675;1259;61754;-48
2023/06/30 03:43:23;;;;;;;0.80;0.80;;;;;;;15.44;100.00;98556.55;105254;1257;60966;-48
2023/06/30 03:45:52;;;;;;;2.30;0.90;;;;;;;15.47;100.00;98557.20;106838;1257;76283;-47
2023/06/30 03:48:23;;;;;;;2.00;0.90;;;;;;;15.50;100.00;98565.89;105052;1261;70368;-48
2023/06/30 03:50:53;;;;;;;1.10;0.90;;;;;;;15.56;100.00;98565.66;104978;1262;72710;-49
2023/06/30 03:53:27;;;;;;;1.70;0.90;;;;;;;15.60;100.00;98570.92;108474;1256;63075;-49
2023/06/30 03:55:58;;;;;;;1.60;0.80;;;;;;;15.63;100.00;98569.55;105051;1260;62415;-48
2023/06/30 03:58:27;;;;;;;1.50;1.00;;;;;;;15.65;100.00;98568.50;104928;1261;75243;-47
2023/06/30 04:00:55;;;;;;;1.20;0.90;;;;;;;15.66;100.00;98565.07;105553;1257;66599;-50
2023/06/30 04:03:23;;;;;;;3.10;0.90;;;;;;;15.70;100.00;98564.81;105386;1260;71502;-48
2023/06/30 04:05:54;;;;;;;1.80;0.80;;;;;;;15.73;100.00;98566.66;108840;1254;62491;-49
2023/06/30 04:08:22;;;;;;;1.70;0.90;;;;;;;15.78;100.00;98568.73;108938;1254;61010;-48
2023/06/30 04:10:55;;;;;;;2.80;0.90;;;;;;;15.83;100.00;98574.45;107819;1254;76114;-48
2023/06/30 04:13:29;;;;;;;1.40;0.90;;;;;;;15.89;100.00;98573.91;105335;1260;69857;-48
2023/06/30 04:16:01;;;;;;;1.10;1.00;;;;;;;15.94;100.00;98567.15;105242;1259;73045;-49
2023/06/30 04:18:32;;;;;;;1.10;0.90;;;;;;;16.01;100.00;98568.55;104909;1264;63955;-48
2023/06/30 04:20:59;;;;;;;1.50;0.90;;;;;;;16.07;100.00;98569.45;104421;1253;60463;-47
2023/06/30 04:23:27;;;;;;;1.70;1.20;;;;;;;16.11;100.00;98571.56;104520;1257;72554;-47
2023/06/30 04:25:54;;;;;;;2.30;0.90;;;;;;;16.14;100.00;98578.19;104330;1257;69725;-48
2023/06/30 04:28:22;;;;;;;6.20;1.20;;;;;;;16.16;100.00;98569.30;104427;1255;74959;-48
2023/06/30 04:30:49;;;;;;;2.10;0.80;;;;;;;16.20;100.00;98567.34;104642;1253;61683;-49
2023/06/30 04:33:17;;;;;;;0.80;0.80;;;;;;;16.23;100.00;98567.83;104766;1258;60429;-47
2023/06/30 04:35:44;;;;;;;3.20;0.90;;;;;;;16.25;100.00;98571.35;104823;1260;73369;-50
2023/06/30 04:38:12;;;;;;;2.90;1.00;;;;;;;16.32;100.00;98575.50;108793;1254;67512;-47
2023/06/30 04:40:40;;;;;;;1.80;1.00;;;;;;;16.39;100.00;98578.09;108927;1255;73161;-47
2023/06/30 04:43:12;;;;;;;1.10;0.90;;;;;;;16.45;100.00;98572.10;108824;1258;60554;-47
2023/06/30 04:45:40;;;;;;;0.90;0.80;;;;;;;16.52;100.00;98573.60;109146;1253;62353;-49
2023/06/30 04:48:07;;;;;;;1.70;0.80;;;;;;;16.60;100.00;98575.23;109154;1254;75312;-47
2023/06/30 04:50:35;;;;;;;3.70;1.00;;;;;;;16.68;100.00;98575.84;106916;1254;68111;-49
2023/06/30 04:53:02;;;;;;;0.90;0.90;;;;;;;16.76;100.00;98578.04;105138;1257;73240;-47
2023/06/30 04:55:30;;;;;;;1.30;1.00;;;;;;;16.84;100.00;98577.81;104983;1254;60537;-47
2023/06/30 04:58:03;;;;;;;0.90;0.80;;;;;;;16.93;100.00;98576.79;104983;1254;61276;-49
2023/06/30 05:00:30;;;;;;;1.20;0.90;;;;;;;17.01;100.00;98579.77;105027;1254;72591;-49
2023/06/30 05:02:58;;;;;;;1.10;0.80;;;;;;;17.09;100.00;98572.18;105203;1258;67609;-49
2023/06/30 05:05:28;;;;;;;2.40;0.80;;;;;;;17.18;100.00;98576.02;105431;1255;72917;-49
2023/06/30 05:07:55;;;;;;;1.00;0.80;;;;;;;17.27;100.00;98580.62;105163;1259;60405;-48
2023/06/30 05:10:22;;;;;;;3.90;1.10;;;;;;;17.36;100.00;98587.23;104999;1253;61086;-48
2023/06/30 05:12:50;;;;;;;2.70;0.90;;;;;;;17.44;100.00;98588.30;105262;1257;73055;-48
2023/06/30 05:15:17;;;;;;;0.80;0.70;;;;;;;17.50;100.00;98586.23;105056;1256;66279;-50
2023/06/30 05:17:47;;;;;;;2.80;0.80;;;;;;;17.58;100.00;98585.08;104975;1255;72676;-49
2023/06/30 05:20:15;;;;;;;1.20;0.80;;;;;;;17.68;100.00;98586.84;104815;1257;62236;-49
2023/06/30 05:22:42;;;;;;;2.10;0.90;;;;;;;17.77;100.00;98590.02;104930;1254;60410;-48
2023/06/30 05:25:09;;;;;;;1.00;0.90;;;;;;;17.86;100.00;98585.38;105108;1254;73769;-49
2023/06/30 05:27:37;;;;;;;1.60;0.90;;;;;;;17.93;100.00;98588.63;105096;1257;67528;-48
2023/06/30 05:30:06;;;;;;;2.80;0.90;;;;;;;17.99;100.00;98587.55;104654;1254;74906;-48
2023/06/30 05:32:35;;;;;;;1.70;0.80;;;;;;;18.03;100.00;98588.59;105102;1254;60602;-49
2023/06/30 05:35:05;;;;;;;2.60;0.90;;;;;;;18.04;100.00;98589.75;105933;1258;60921;-48
2023/06/30 05:37:38;;;;;;;1.00;0.80;;;;;;;18.05;100.00;98593.82;105711;1253;72551;-48
2023/06/30 05:40:06;;;;;;;1.80;0.90;;;;;;;18.06;100.00;98591.55;105003;1255;68174;-49
2023/06/30 05:42:33;;;;;;;1.50;0.90;;;;;;;18.05;100.00;98594.70;105248;1256;71917;-48
2023/06/30 05:45:00;;;;;;;0.80;0.80;;;;;;;18.03;100.00;98593.29;105281;1253;60531;-49
2023/06/30 05:47:30;;;;;;;0.90;0.90;;;;;;;18.03;100.00;98593.84;105050;1260;60353;-47
2023/06/30 05:49:58;;;;;;;2.30;1.00;;;;;;;18.04;100.00;98594.97;105086;1253;73897;-47
2023/06/30 05:52:27;;;;;;;1.10;0.90;;;;;;;18.06;100.00;98595.73;104908;1257;66336;-48
2023/06/30 05:54:54;;;;;;;1.50;1.00;;;;;;;18.08;100.00;98592.06;105182;1257;73178;-48
2023/06/30 05:57:21;;;;;;;1.10;0.80;;;;;;;18.10;100.00;98592.60;104889;1254;61689;-48
2023/06/30 05:59:49;;;;;;;1.70;0.80;;;;;;;18.11;100.00;98585.11;104850;1254;60522;-48
2023/06/30 06:02:16;;;;;;;1.00;0.90;;;;;;;18.12;100.00;98585.62;104704;1254;75479;-48
2023/06/30 06:04:44;;;;;;;1.20;0.90;;;;;;;18.13;100.00;98584.44;104432;1254;68033;-48
2023/06/30 06:07:12;;;;;;;1.00;0.90;;;;;;;18.15;100.00;98586.30;104700;1254;71032;-48
2023/06/30 06:09:40;;;;;;;1.50;1.00;;;;;;;18.15;100.00;98584.07;105052;1254;60996;-47
2023/06/30 06:12:08;;;;;;;1.00;0.90;;;;;;;18.19;100.00;98585.20;104734;1254;60576;-48
2023/06/30 06:14:35;;;;;;;2.10;0.80;;;;;;;18.23;100.00;98583.71;104913;1254;72612;-50
2023/06/30 06:17:03;;;;;;;3.30;1.00;;;;;;;18.28;100.00;98580.48;104742;1254;67528;-48
2023/06/30 06:19:30;;;;;;;1.40;1.20;;;;;;;18.35;100.00;98579.94;104788;1257;71761;-48
2023/06/30 06:21:58;;;;;;;1.10;1.00;;;;;;;18.42;100.00;98578.49;104768;1254;61735;-48
2023/06/30 06:24:28;;;;;;;2.80;0.90;;;;;;;18.51;100.00;98581.05;104760;1257;60888;-48
2023/06/30 06:26:55;;;;;;;1.00;0.90;;;;;;;18.63;100.00;98581.19;104628;1254;72920;-48
2023/06/30 06:29:22;;;;;;;4.00;1.00;;;;;;;18.78;100.00;98582.62;104695;1254;67535;-48
2023/06/30 06:31:51;;;;;;;3.00;0.90;;;;;;;18.93;100.00;98586.15;104653;1253;73139;-47
2023/06/30 06:34:18;;;;;;;2.60;1.00;;;;;;;19.06;100.00;98583.35;107432;1257;60559;-48
2023/06/30 06:36:46;;;;;;;2.60;0.80;;;;;;;19.18;100.00;98584.02;104547;1254;62967;-49
2023/06/30 06:39:14;;;;;;;3.20;0.90;;;;;;;19.29;100.00;98584.14;104606;1254;71768;-47
2023/06/30 06:41:41;;;;;;;2.20;1.00;;;;;;;19.37;100.00;98576.57;104989;1254;67857;-48
2023/06/30 06:44:09;;;;;;;1.50;1.00;;;;;;;19.46;100.00;98584.37;106722;1254;72687;-48
2023/06/30 06:46:36;;;;;;;1.80;1.20;;;;;;;19.55;100.00;98584.93;104559;1254;62513;-47
2023/06/30 06:49:04;;;;;;;1.10;1.00;;;;;;;19.62;100.00;98580.73;104578;1254;61170;-50
2023/06/30 06:51:33;;;;;;;3.00;1.00;;;;;;;19.71;100.00;98582.19;105051;1257;73766;-49
2023/06/30 06:54:00;;;;;;;1.50;1.00;;;;;;;19.80;100.00;98588.88;104567;1254;68597;-49
2023/06/30 06:56:28;;;;;;;4.70;1.10;;;;;;;19.87;100.00;98587.96;104810;1254;71408;-48
2023/06/30 06:58:55;;;;;;;1.10;1.00;;;;;;;19.94;100.00;98585.52;104719;1254;60536;-48
2023/06/30 07:01:22;;;;;;;3.40;1.20;;;;;;;20.01;100.00;98593.86;104594;1257;60536;-48
2023/06/30 07:03:50;;;;;;;1.30;1.20;;;;;;;20.09;100.00;98598.72;104650;1254;73865;-48
2023/06/30 07:06:18;;;;;;;2.00;1.10;;;;;;;20.16;100.00;98595.79;108833;1252;67554;-49
2023/06/30 07:08:46;;;;;;;1.00;0.90;;;;;;;20.25;100.00;98604.65;108907;1251;71210;-50
2023/06/30 07:11:13;;;;;;;1.00;0.90;;;;;;;20.32;100.00;98599.34;108589;1253;60870;-51
2023/06/30 07:13:41;;;;;;;1.30;0.90;;;;;;;20.40;100.00;98608.34;108714;1252;58863;-50
2023/06/30 07:16:08;;;;;;;1.00;0.90;;;;;;;20.49;100.00;98608.12;108925;1253;73822;-51
2023/06/30 07:18:35;;;;;;;1.10;1.00;;;;;;;20.59;100.00;98607.41;108809;1253;67851;-49
2023/06/30 07:21:03;;;;;;;7.20;2.30;;;;;;;20.67;100.00;98610.75;108748;1254;74681;-50
2023/06/30 07:23:31;;;;;;;1.40;1.10;;;;;;;20.73;100.00;98619.70;108682;1253;58769;-48
2023/06/30 07:25:58;;;;;;;1.10;1.00;;;;;;;20.79;100.00;98619.65;108633;1255;58788;-47
2023/06/30 07:28:26;;;;;;;1.00;0.90;;;;;;;20.82;100.00;98625.89;108801;1254;72590;-47
2023/06/30 07:30:53;;;;;;;2.20;0.90;;;;;;;20.82;100.00;98621.48;109106;1252;66555;-49
2023/06/30 07:33:20;;;;;;;3.50;1.20;;;;;;;20.84;100.00;98625.02;108997;1253;71829;-51
2023/06/30 07:35:48;;;;;;;1.40;1.10;;;;;;;20.88;100.00;98623.38;108978;1255;61619;-47
2023/06/30 07:38:16;;;;;;;1.00;0.90;;;;;;;20.94;100.00;98628.93;109037;1254;59598;-48
2023/06/30 07:40:43;;;;;;;2.10;1.00;;;;;;;21.02;100.00;98631.83;108951;1254;73762;-50
2023/06/30 07:43:23;;;;;;;1.90;1.00;;;;;;;21.13;100.00;98638.90;106612;1253;65795;-50
2023/06/30 07:45:50;;;;;;;1.50;1.00;;;;;;;21.24;100.00;98641.17;105950;1255;72759;-49
2023/06/30 07:48:18;;;;;;;2.90;1.10;;;;;;;21.30;100.00;98637.90;106444;1253;60003;-48
2023/06/30 07:50:45;;;;;;;2.50;1.30;;;;;;;21.35;100.00;98641.70;104706;1254;60535;-49
2023/06/30 07:53:29;;;;;;;1.70;1.10;;;;;;;21.40;100.00;98632.75;104732;1257;73874;-49
2023/06/30 07:55:56;;;;;;;3.60;1.10;;;;;;;21.44;100.00;98632.51;104926;1253;68055;-47
2023/06/30 07:58:25;;;;;;;1.70;1.30;;;;;;;21.46;100.00;98635.55;104954;1254;71616;-49
2023/06/30 08:00:52;;;;;;;1.20;1.10;;;;;;;21.52;100.00;98635.84;104778;1254;60843;-47
2023/06/30 08:03:20;;;;;;;3.10;1.20;;;;;;;21.57;100.00;98637.45;104728;1257;60540;-49
2023/06/30 08:05:48;;;;;;;5.20;0.90;;;;;;;21.59;100.00;98640.55;106141;1254;74307;-49
2023/06/30 08:08:16;;;;;;;3.40;0.90;;;;;;;21.62;100.00;98641.48;106935;1252;67660;-49
2023/06/30 08:10:44;;;;;;;1.20;1.10;;;;;;;21.67;100.00;98641.09;108271;1257;76665;-51
2023/06/30 08:13:11;;;;;;;2.80;1.50;;;;;;;21.72;100.00;98646.23;104908;1254;62527;-48
2023/06/30 08:15:39;;;;;;;1.70;1.10;;;;;;;21.73;100.00;98638.03;104636;1254;60389;-47
2023/06/30 08:18:06;;;;;;;1.30;1.20;;;;;;;21.74;100.00;98643.58;104839;1252;72547;-48
2023/06/30 08:20:37;;;;;;;1.50;1.00;;;;;;;21.75;100.00;98639.79;104755;1253;66273;-49
2023/06/30 08:23:05;;;;;;;3.10;1.70;;;;;;;21.79;100.00;98639.37;105379;1253;71490;-49
2023/06/30 08:25:32;;;;;;;1.80;1.20;;;;;;;21.83;100.00;98646.94;104645;1256;61106;-49
2023/06/30 08:28:00;;;;;;;1.00;0.90;;;;;;;21.85;100.00;98641.48;104505;1257;60460;-49
2023/06/30 08:30:30;;;;;;;1.20;0.90;;;;;;;21.86;100.00;98643.65;104658;1253;61497;-48
2023/06/30 08:32:58;;;;;;;1.60;1.00;;;;;;;21.92;100.00;98648.85;106418;1254;66647;-49
2023/06/30 08:35:26;;;;;;;1.70;1.00;;;;;;;22.00;100.00;98655.11;105046;1256;72714;-50
2023/06/30 08:37:54;;;;;;;4.50;1.20;;;;;;;22.05;100.00;98647.56;105034;1253;60570;-49
2023/06/30 08:40:25;;;;;;;1.10;1.00;;;;;;;22.11;100.00;98657.02;104859;1258;59335;-50
2023/06/30 08:42:52;;;;;;;4.10;0.90;;;;;;;22.16;100.00;98654.88;105154;1252;75444;-48
2023/06/30 08:45:23;;;;;;;3.90;0.90;;;;;;;22.21;100.00;98652.36;104873;1258;70136;-49
2023/06/30 08:47:51;;;;;;;4.00;1.10;;;;;;;22.24;100.00;98660.59;104680;1254;73682;-50
2023/06/30 08:50:22;;;;;;;2.80;0.90;;;;;;;22.24;100.00;98655.69;104907;1257;63085;-47
2023/06/30 08:52:49;;;;;;;2.60;0.90;;;;;;;22.28;100.00;98659.29;104656;1253;60424;-49
2023/06/30 08:55:17;;;;;;;1.70;1.00;;;;;;;22.33;100.00;98660.13;105095;1257;72566;-51
2023/06/30 08:57:44;;;;;;;1.20;1.10;;;;;;;22.39;100.00;98663.77;104902;1254;65769;-50
2023/06/30 09:00:13;;;;;;;1.20;0.90;;;;;;;22.47;100.00;98670.03;105332;1257;71468;-50
2023/06/30 09:02:40;;;;;;;1.20;0.80;;;;;;;22.56;100.00;98668.19;104677;1254;60528;-49
2023/06/30 09:05:08;;;;;;;1.60;0.90;;;;;;;22.63;100.00;98665.73;104872;1253;60448;-49
2023/06/30 09:07:39;;;;;;;1.60;0.90;;;;;;;22.69;100.00;98664.24;104854;1253;74237;-48
2023/06/30 09:10:09;;;;;;;1.90;1.00;;;;;;;22.76;100.00;98673.15;105124;1257;66624;-49
2023/06/30 09:12:38;;;;;;;0.80;0.80;;;;;;;22.83;100.00;98674.12;104487;1254;72520;-50
2023/06/30 09:15:07;;;;;;;1.00;0.90;;;;;;;22.88;100.00;98682.10;106936;1253;60357;-48
2023/06/30 09:17:34;;;;;;;1.80;0.90;;;;;;;22.92;100.00;98680.20;104832;1254;60512;-47
2023/06/30 09:20:02;;;;;;;1.40;1.00;;;;;;;22.96;100.00;98687.23;104714;1253;73838;-50
2023/06/30 09:22:29;;;;;;;1.00;0.90;;;;;;;22.99;100.00;98686.06;104858;1257;66306;-48
2023/06/30 09:25:25;;;;;;;1.60;1.00;;;;;;;23.02;100.00;98686.88;104803;1253;71472;-52
2023/06/30 09:27:59;;;;;;;0.80;0.80;;;;;;;23.06;100.00;98685.48;104995;1257;60478;-50
2023/06/30 09:30:34;;;;;;;2.50;0.90;;;;;;;23.10;100.00;98690.68;105113;1256;60373;-50
2023/06/30 09:33:02;;;;;;;0.90;0.90;;;;;;;23.13;100.00;98688.41;105517;1256;74430;-50
2023/06/30 09:35:39;;;;;;;1.60;1.00;;;;;;;23.15;100.00;98694.15;104993;1253;65717;-50
2023/06/30 09:38:17;;;;;;;2.90;0.80;;;;;;;23.16;100.00;98697.48;104978;1257;73125;-49
2023/06/30 09:40:47;;;;;;;1.30;0.80;;;;;;;23.19;100.00;98685.29;105122;1253;60940;-50
2023/06/30 09:43:21;;;;;;;1.10;1.00;;;;;;;23.23;100.00;98690.02;105203;1257;60492;-49
2023/06/30 09:45:59;;;;;;;1.80;0.80;;;;;;;23.29;100.00;98687.33;107718;1255;73880;-51
2023/06/30 09:48:39;;;;;;;2.60;1.70;;;;;;;23.33;100.00;98680.25;104764;1257;68436;-50
2023/06/30 09:51:10;;;;;;;4.20;0.90;;;;;;;23.37;100.00;98683.22;105866;1257;73230;-49
2023/06/30 09:53:38;;;;;;;1.90;1.00;;;;;;;23.42;100.00;98680.30;105033;1254;62845;-49
2023/06/30 09:56:07;;;;;;;1.50;1.00;;;;;;;23.46;100.00;98677.48;104593;1259;60346;-48
2023/06/30 09:58:37;;;;;;;1.40;0.90;;;;;;;23.50;100.00;98678.84;104691;1257;76461;-49
2023/06/30 10:01:05;;;;;;;4.20;0.80;;;;;;;23.55;100.00;98684.99;104897;1257;66694;-49
2023/06/30 10:03:34;;;;;;;2.10;0.90;;;;;;;23.63;100.00;98686.66;108985;1254;73169;-49
2023/06/30 10:06:02;;;;;;;2.70;0.90;;;;;;;23.70;100.00;98683.34;105833;1258;61018;-50
2023/06/30 10:08:29;;;;;;;1.00;0.90;;;;;;;23.74;100.00;98677.05;104928;1253;60486;-51
2023/06/30 10:10:57;;;;;;;2.90;0.90;;;;;;;23.75;100.00;98679.69;104601;1256;74391;-48
2023/06/30 10:13:25;;;;;;;2.10;0.90;;;;;;;23.72;100.00;98684.02;104699;1257;67715;-50
2023/06/30 10:15:52;;;;;;;5.20;1.10;;;;;;;23.68;100.00;98678.48;104543;1253;72804;-50
2023/06/30 10:18:20;;;;;;;1.30;1.00;;;;;;;23.67;100.00;98677.39;104636;1259;61682;-48
2023/06/30 10:20:47;;;;;;;1.60;0.90;;;;;;;23.70;100.00;98678.98;104533;1259;59773;-50
2023/06/30 10:23:19;;;;;;;11.00;1.10;;;;;;;23.78;100.00;98674.73;104692;1257;74114;-48
2023/06/30 10:25:46;;;;;;;1.00;0.90;;;;;;;23.88;100.00;98673.52;108871;1253;67602;-49
2023/06/30 10:28:14;;;;;;;1.20;0.90;;;;;;;24.01;100.00;98683.52;106652;1253;73042;-50
2023/06/30 10:30:42;;;;;;;8.20;1.00;;;;;;;24.15;100.00;98680.86;104609;1256;60708;-51
2023/06/30 10:33:09;;;;;;;2.30;1.00;;;;;;;24.23;100.00;98672.75;104915;1257;60433;-49
2023/06/30 10:35:37;;;;;;;2.70;0.90;;;;;;;24.25;100.00;98676.95;104712;1253;74195;-48
2023/06/30 10:38:05;;;;;;;1.00;0.90;;;;;;;24.22;100.00;98683.73;108839;1252;68012;-50
2023/06/30 10:40:32;;;;;;;6.30;0.90;;;;;;;24.16;100.00;98680.04;109093;1251;71362;-50
2023/06/30 10:43:00;;;;;;;3.80;0.80;;;;;;;24.13;100.00;98675.91;108853;1253;58867;-49
2023/06/30 10:45:29;;;;;;;1.30;0.90;;;;;;;24.17;100.00;98672.35;108392;1253;60065;-51
2023/06/30 10:48:14;;;;;;;0.80;0.80;;;;;;;24.22;100.00;98666.34;104663;1253;74985;-51
2023/06/30 10:50:41;;;;;;;1.50;1.00;;;;;;;24.28;100.00;98660.78;104732;1257;67646;-48
2023/06/30 10:53:17;;;;;;;1.60;0.90;;;;;;;24.35;100.00;98658.16;108959;1253;72421;-48
2023/06/30 10:55:45;;;;;;;0.90;0.90;;;;;;;24.38;100.00;98661.54;108843;1253;60014;-49
2023/06/30 10:58:23;;;;;;;2.90;1.20;;;;;;;24.39;100.00;98656.48;104938;1253;59666;-47
2023/06/30 11:01:04;;;;;;;0.80;0.80;;;;;;;24.39;100.00;98654.89;104242;1256;74172;-50
2023/06/30 11:03:57;;;;;;;0.80;0.80;;;;;;;24.38;100.00;98663.59;108777;1253;68386;-50
2023/06/30 11:06:25;;;;;;;2.20;0.90;;;;;;;24.34;100.00;98655.15;108980;1251;72731;-46
2023/06/30 11:09:00;;;;;;;4.20;0.90;;;;;;;24.30;100.00;98647.94;105760;1255;61050;-50
2023/06/30 11:11:27;;;;;;;1.10;1.00;;;;;;;24.29;100.00;98648.73;108792;1253;60049;-48
2023/06/30 11:14:05;;;;;;;0.90;0.90;;;;;;;24.30;100.00;98632.16;104833;1256;73809;-49
2023/06/30 11:17:04;;;;;;;1.00;0.90;;;;;;;24.30;100.00;98630.48;104403;1257;66307;-51
2023/06/30 11:19:31;;;;;;;1.60;0.90;;;;;;;24.26;100.00;98633.52;104425;1253;75705;-49
2023/06/30 11:22:22;;;;;;;1.60;1.00;;;;;;;24.17;100.00;98628.01;104758;1255;61109;-48
2023/06/30 11:24:50;;;;;;;2.10;1.10;;;;;;;24.04;100.00;98644.27;104738;1253;60454;-53